sensor_id;sensor_type;location;lat;lon;timestamp;P1;durP1;ratioP1;P2;durP2;ratioP2
30874;SDS011;17581;43.222;27.924;2022-08-01T00:00:32;25.23;;;12.07;;
30874;SDS011;17581;43.222;27.924;2022-08-01T00:02:58;17.15;;;11.55;;
30874;SDS011;17581;43.222;27.924;2022-08-01T00:05:23;20.30;;;11.32;;
30874;SDS011;17581;43.222;27.924;2022-08-01T00:07:49;21.40;;;11.63;;
30874;SDS011;17581;43.222;27.924;2022-08-01T00:10:16;24.45;;;11.90;;
30874;SDS011;17581;43.222;27.924;2022-08-01T00:12:42;29.60;;;12.10;;
30874;SDS011;17581;43.222;27.924;2022-08-01T00:15:09;25.23;;;12.38;;
30874;SDS011;17581;43.222;27.924;2022-08-01T00:17:36;23.20;;;12.18;;
30874;SDS011;17581;43.222;27.924;2022-08-01T00:20:02;25.10;;;12.60;;
30874;SDS011;17581;43.222;27.924;2022-08-01T00:22:32;29.98;;;11.55;;
30874;SDS011;17581;43.222;27.924;2022-08-01T00:24:59;31.50;;;12.27;;
30874;SDS011;17581;43.222;27.924;2022-08-01T00:27:25;29.17;;;14.38;;
30874;SDS011;17581;43.222;27.924;2022-08-01T00:29:50;30.02;;;12.48;;
30874;SDS011;17581;43.222;27.924;2022-08-01T00:32:16;18.25;;;11.00;;
30874;SDS011;17581;43.222;27.924;2022-08-01T00:34:41;31.70;;;11.23;;
30874;SDS011;17581;43.222;27.924;2022-08-01T00:37:07;24.80;;;11.82;;
30874;SDS011;17581;43.222;27.924;2022-08-01T00:39:32;58.35;;;13.40;;
30874;SDS011;17581;43.222;27.924;2022-08-01T00:41:58;20.80;;;11.85;;
30874;SDS011;17581;43.222;27.924;2022-08-01T00:44:24;32.00;;;11.10;;
30874;SDS011;17581;43.222;27.924;2022-08-01T00:46:50;32.00;;;12.30;;
30874;SDS011;17581;43.222;27.924;2022-08-01T00:49:15;26.73;;;11.65;;
30874;SDS011;17581;43.222;27.924;2022-08-01T00:51:41;20.35;;;10.23;;
30874;SDS011;17581;43.222;27.924;2022-08-01T00:54:07;22.95;;;11.25;;
30874;SDS011;17581;43.222;27.924;2022-08-01T00:56:32;24.52;;;11.00;;
30874;SDS011;17581;43.222;27.924;2022-08-01T00:58:58;32.58;;;12.75;;
30874;SDS011;17581;43.222;27.924;2022-08-01T01:01:23;17.60;;;11.43;;
30874;SDS011;17581;43.222;27.924;2022-08-01T01:03:51;27.60;;;13.30;;
30874;SDS011;17581;43.222;27.924;2022-08-01T01:09:39;24.90;;;13.02;;
30874;SDS011;17581;43.222;27.924;2022-08-01T01:17:21;24.75;;;14.15;;
30874;SDS011;17581;43.222;27.924;2022-08-01T01:19:53;33.42;;;16.88;;
30874;SDS011;17581;43.222;27.924;2022-08-01T01:22:36;31.20;;;16.90;;
30874;SDS011;17581;43.222;27.924;2022-08-01T01:30:37;36.95;;;22.58;;
30874;SDS011;17581;43.222;27.924;2022-08-01T01:33:06;41.33;;;24.20;;
30874;SDS011;17581;43.222;27.924;2022-08-01T01:35:36;58.17;;;25.27;;
30874;SDS011;17581;43.222;27.924;2022-08-01T01:38:22;44.63;;;24.83;;
30874;SDS011;17581;43.222;27.924;2022-08-01T01:40:52;37.47;;;24.05;;
30874;SDS011;17581;43.222;27.924;2022-08-01T01:43:18;44.33;;;25.27;;
30874;SDS011;17581;43.222;27.924;2022-08-01T01:45:45;42.50;;;25.35;;
30874;SDS011;17581;43.222;27.924;2022-08-01T01:48:12;39.30;;;22.58;;
30874;SDS011;17581;43.222;27.924;2022-08-01T01:50:40;33.10;;;22.25;;
30874;SDS011;17581;43.222;27.924;2022-08-01T01:53:07;34.95;;;20.48;;
30874;SDS011;17581;43.222;27.924;2022-08-01T01:55:37;31.10;;;17.00;;
30874;SDS011;17581;43.222;27.924;2022-08-01T01:58:06;25.75;;;13.88;;
30874;SDS011;17581;43.222;27.924;2022-08-01T02:00:32;26.83;;;12.77;;
30874;SDS011;17581;43.222;27.924;2022-08-01T02:02:59;32.50;;;12.85;;
30874;SDS011;17581;43.222;27.924;2022-08-01T02:05:27;23.42;;;10.50;;
30874;SDS011;17581;43.222;27.924;2022-08-01T02:07:53;12.90;;;7.90;;
30874;SDS011;17581;43.222;27.924;2022-08-01T02:10:20;12.10;;;7.78;;
30874;SDS011;17581;43.222;27.924;2022-08-01T02:12:47;15.75;;;7.10;;
30874;SDS011;17581;43.222;27.924;2022-08-01T02:15:15;8.77;;;6.63;;
30874;SDS011;17581;43.222;27.924;2022-08-01T02:17:44;11.75;;;5.90;;
30874;SDS011;17581;43.222;27.924;2022-08-01T02:20:12;18.00;;;6.32;;
30874;SDS011;17581;43.222;27.924;2022-08-01T02:22:44;9.63;;;5.63;;
30874;SDS011;17581;43.222;27.924;2022-08-01T02:25:21;18.30;;;4.75;;
30874;SDS011;17581;43.222;27.924;2022-08-01T02:30:54;8.95;;;3.40;;
30874;SDS011;17581;43.222;27.924;2022-08-01T02:33:38;9.43;;;4.30;;
30874;SDS011;17581;43.222;27.924;2022-08-01T02:36:06;5.72;;;3.70;;
30874;SDS011;17581;43.222;27.924;2022-08-01T02:38:33;7.13;;;3.13;;
30874;SDS011;17581;43.222;27.924;2022-08-01T02:41:06;5.72;;;3.50;;
30874;SDS011;17581;43.222;27.924;2022-08-01T02:43:34;10.48;;;3.85;;
30874;SDS011;17581;43.222;27.924;2022-08-01T02:46:02;9.75;;;3.47;;
30874;SDS011;17581;43.222;27.924;2022-08-01T02:48:31;7.93;;;4.07;;
30874;SDS011;17581;43.222;27.924;2022-08-01T02:51:00;13.43;;;4.32;;
30874;SDS011;17581;43.222;27.924;2022-08-01T02:53:27;3.83;;;3.20;;
30874;SDS011;17581;43.222;27.924;2022-08-01T02:55:56;13.65;;;3.60;;
30874;SDS011;17581;43.222;27.924;2022-08-01T02:58:23;8.60;;;3.15;;
30874;SDS011;17581;43.222;27.924;2022-08-01T03:00:50;4.68;;;3.50;;
30874;SDS011;17581;43.222;27.924;2022-08-01T03:03:16;18.80;;;3.65;;
30874;SDS011;17581;43.222;27.924;2022-08-01T03:05:42;5.05;;;3.75;;
30874;SDS011;17581;43.222;27.924;2022-08-01T03:08:09;4.85;;;3.50;;
30874;SDS011;17581;43.222;27.924;2022-08-01T03:10:37;10.13;;;3.83;;
30874;SDS011;17581;43.222;27.924;2022-08-01T03:13:05;18.15;;;4.78;;
30874;SDS011;17581;43.222;27.924;2022-08-01T03:15:33;3.53;;;3.10;;
30874;SDS011;17581;43.222;27.924;2022-08-01T03:18:02;6.60;;;3.65;;
30874;SDS011;17581;43.222;27.924;2022-08-01T03:20:31;5.75;;;3.35;;
30874;SDS011;17581;43.222;27.924;2022-08-01T03:22:59;12.18;;;3.72;;
30874;SDS011;17581;43.222;27.924;2022-08-01T03:25:28;4.45;;;3.15;;
30874;SDS011;17581;43.222;27.924;2022-08-01T03:27:58;6.80;;;3.40;;
30874;SDS011;17581;43.222;27.924;2022-08-01T03:30:27;4.53;;;2.83;;
30874;SDS011;17581;43.222;27.924;2022-08-01T03:32:55;7.72;;;3.72;;
30874;SDS011;17581;43.222;27.924;2022-08-01T03:35:20;4.63;;;3.47;;
30874;SDS011;17581;43.222;27.924;2022-08-01T03:37:49;7.05;;;3.17;;
30874;SDS011;17581;43.222;27.924;2022-08-01T03:40:27;26.38;;;4.65;;
30874;SDS011;17581;43.222;27.924;2022-08-01T03:42:58;8.05;;;3.70;;
30874;SDS011;17581;43.222;27.924;2022-08-01T03:45:27;6.68;;;3.10;;
30874;SDS011;17581;43.222;27.924;2022-08-01T03:50:25;4.68;;;2.65;;
30874;SDS011;17581;43.222;27.924;2022-08-01T03:52:52;21.58;;;3.55;;
30874;SDS011;17581;43.222;27.924;2022-08-01T03:55:19;13.68;;;3.17;;
30874;SDS011;17581;43.222;27.924;2022-08-01T03:57:46;11.77;;;3.15;;
30874;SDS011;17581;43.222;27.924;2022-08-01T04:00:13;11.00;;;3.50;;
30874;SDS011;17581;43.222;27.924;2022-08-01T04:02:43;17.65;;;2.65;;
30874;SDS011;17581;43.222;27.924;2022-08-01T04:05:10;6.03;;;2.85;;
30874;SDS011;17581;43.222;27.924;2022-08-01T04:07:36;21.15;;;2.97;;
30874;SDS011;17581;43.222;27.924;2022-08-01T04:10:04;21.15;;;3.10;;
30874;SDS011;17581;43.222;27.924;2022-08-01T04:12:30;7.22;;;3.50;;
30874;SDS011;17581;43.222;27.924;2022-08-01T04:14:57;8.88;;;2.78;;
30874;SDS011;17581;43.222;27.924;2022-08-01T04:17:23;4.55;;;2.00;;
30874;SDS011;17581;43.222;27.924;2022-08-01T04:19:49;33.92;;;5.20;;
30874;SDS011;17581;43.222;27.924;2022-08-01T04:22:15;5.78;;;2.25;;
30874;SDS011;17581;43.222;27.924;2022-08-01T04:24:42;15.20;;;2.45;;
30874;SDS011;17581;43.222;27.924;2022-08-01T04:27:14;9.13;;;2.53;;
30874;SDS011;17581;43.222;27.924;2022-08-01T04:29:44;11.52;;;2.47;;
30874;SDS011;17581;43.222;27.924;2022-08-01T04:32:12;6.57;;;2.50;;
30874;SDS011;17581;43.222;27.924;2022-08-01T04:34:40;8.10;;;2.03;;
30874;SDS011;17581;43.222;27.924;2022-08-01T04:37:11;10.13;;;2.28;;
30874;SDS011;17581;43.222;27.924;2022-08-01T04:39:41;16.38;;;2.50;;
30874;SDS011;17581;43.222;27.924;2022-08-01T04:42:08;4.80;;;2.47;;
30874;SDS011;17581;43.222;27.924;2022-08-01T04:44:35;5.78;;;2.20;;
30874;SDS011;17581;43.222;27.924;2022-08-01T04:47:02;11.10;;;2.38;;
30874;SDS011;17581;43.222;27.924;2022-08-01T04:49:30;29.73;;;5.47;;
30874;SDS011;17581;43.222;27.924;2022-08-01T04:51:56;8.95;;;2.50;;
30874;SDS011;17581;43.222;27.924;2022-08-01T04:54:28;15.80;;;2.53;;
30874;SDS011;17581;43.222;27.924;2022-08-01T04:56:58;10.65;;;2.85;;
30874;SDS011;17581;43.222;27.924;2022-08-01T04:59:27;21.00;;;3.10;;
30874;SDS011;17581;43.222;27.924;2022-08-01T05:02:08;7.53;;;2.47;;
30874;SDS011;17581;43.222;27.924;2022-08-01T05:04:41;7.72;;;2.53;;
30874;SDS011;17581;43.222;27.924;2022-08-01T05:07:08;18.58;;;3.65;;
30874;SDS011;17581;43.222;27.924;2022-08-01T05:09:35;15.02;;;2.63;;
30874;SDS011;17581;43.222;27.924;2022-08-01T05:12:01;7.07;;;2.05;;
30874;SDS011;17581;43.222;27.924;2022-08-01T05:14:29;14.15;;;2.75;;
30874;SDS011;17581;43.222;27.924;2022-08-01T05:16:58;26.67;;;3.75;;
30874;SDS011;17581;43.222;27.924;2022-08-01T05:19:25;14.27;;;2.58;;
30874;SDS011;17581;43.222;27.924;2022-08-01T05:21:51;18.13;;;2.33;;
30874;SDS011;17581;43.222;27.924;2022-08-01T05:24:17;13.15;;;2.63;;
30874;SDS011;17581;43.222;27.924;2022-08-01T05:26:42;8.60;;;2.10;;
30874;SDS011;17581;43.222;27.924;2022-08-01T05:29:08;6.95;;;2.42;;
30874;SDS011;17581;43.222;27.924;2022-08-01T05:31:33;4.03;;;2.47;;
30874;SDS011;17581;43.222;27.924;2022-08-01T05:33:59;15.00;;;2.42;;
30874;SDS011;17581;43.222;27.924;2022-08-01T05:36:29;5.25;;;2.38;;
30874;SDS011;17581;43.222;27.924;2022-08-01T05:38:55;12.27;;;2.53;;
30874;SDS011;17581;43.222;27.924;2022-08-01T05:41:20;14.60;;;2.83;;
30874;SDS011;17581;43.222;27.924;2022-08-01T05:43:46;10.82;;;2.70;;
30874;SDS011;17581;43.222;27.924;2022-08-01T05:46:12;14.00;;;2.47;;
30874;SDS011;17581;43.222;27.924;2022-08-01T05:48:37;5.38;;;3.00;;
30874;SDS011;17581;43.222;27.924;2022-08-01T05:51:03;12.27;;;2.53;;
30874;SDS011;17581;43.222;27.924;2022-08-01T05:53:28;9.10;;;2.58;;
30874;SDS011;17581;43.222;27.924;2022-08-01T05:55:54;27.48;;;3.30;;
30874;SDS011;17581;43.222;27.924;2022-08-01T05:58:20;44.17;;;4.38;;
30874;SDS011;17581;43.222;27.924;2022-08-01T06:00:45;5.13;;;2.35;;
30874;SDS011;17581;43.222;27.924;2022-08-01T06:03:11;13.00;;;2.75;;
30874;SDS011;17581;43.222;27.924;2022-08-01T06:05:37;11.80;;;2.58;;
30874;SDS011;17581;43.222;27.924;2022-08-01T06:08:02;8.98;;;3.35;;
30874;SDS011;17581;43.222;27.924;2022-08-01T06:10:28;8.90;;;2.63;;
30874;SDS011;17581;43.222;27.924;2022-08-01T06:12:54;16.70;;;2.67;;
30874;SDS011;17581;43.222;27.924;2022-08-01T06:15:19;5.78;;;2.20;;
30874;SDS011;17581;43.222;27.924;2022-08-01T06:17:46;7.45;;;2.78;;
30874;SDS011;17581;43.222;27.924;2022-08-01T06:20:11;8.07;;;1.55;;
30874;SDS011;17581;43.222;27.924;2022-08-01T06:22:37;6.85;;;2.25;;
30874;SDS011;17581;43.222;27.924;2022-08-01T06:25:02;7.82;;;3.25;;
30874;SDS011;17581;43.222;27.924;2022-08-01T06:27:28;10.57;;;2.42;;
30874;SDS011;17581;43.222;27.924;2022-08-01T06:29:54;4.25;;;1.90;;
30874;SDS011;17581;43.222;27.924;2022-08-01T06:32:22;6.10;;;2.08;;
30874;SDS011;17581;43.222;27.924;2022-08-01T06:34:48;3.78;;;1.55;;
30874;SDS011;17581;43.222;27.924;2022-08-01T06:37:14;3.95;;;1.98;;
30874;SDS011;17581;43.222;27.924;2022-08-01T06:39:39;9.73;;;2.13;;
30874;SDS011;17581;43.222;27.924;2022-08-01T06:42:05;3.80;;;1.58;;
30874;SDS011;17581;43.222;27.924;2022-08-01T06:44:30;6.22;;;1.92;;
30874;SDS011;17581;43.222;27.924;2022-08-01T06:46:56;5.25;;;1.73;;
30874;SDS011;17581;43.222;27.924;2022-08-01T06:49:23;17.25;;;2.42;;
30874;SDS011;17581;43.222;27.924;2022-08-01T06:51:49;12.20;;;2.35;;
30874;SDS011;17581;43.222;27.924;2022-08-01T06:54:15;11.60;;;2.50;;
30874;SDS011;17581;43.222;27.924;2022-08-01T06:56:41;7.70;;;2.55;;
30874;SDS011;17581;43.222;27.924;2022-08-01T06:59:06;9.80;;;2.63;;
30874;SDS011;17581;43.222;27.924;2022-08-01T07:01:32;8.40;;;2.30;;
30874;SDS011;17581;43.222;27.924;2022-08-01T07:03:58;8.43;;;2.88;;
30874;SDS011;17581;43.222;27.924;2022-08-01T07:06:24;7.53;;;2.05;;
30874;SDS011;17581;43.222;27.924;2022-08-01T07:08:50;9.45;;;2.35;;
30874;SDS011;17581;43.222;27.924;2022-08-01T07:11:16;10.82;;;1.83;;
30874;SDS011;17581;43.222;27.924;2022-08-01T07:13:42;4.25;;;2.05;;
30874;SDS011;17581;43.222;27.924;2022-08-01T07:16:07;14.50;;;1.73;;
30874;SDS011;17581;43.222;27.924;2022-08-01T07:18:32;3.60;;;1.88;;
30874;SDS011;17581;43.222;27.924;2022-08-01T07:20:58;8.90;;;1.70;;
30874;SDS011;17581;43.222;27.924;2022-08-01T07:23:23;8.35;;;1.70;;
30874;SDS011;17581;43.222;27.924;2022-08-01T07:25:49;10.90;;;2.75;;
30874;SDS011;17581;43.222;27.924;2022-08-01T07:28:15;18.55;;;3.67;;
30874;SDS011;17581;43.222;27.924;2022-08-01T07:30:41;9.50;;;2.33;;
30874;SDS011;17581;43.222;27.924;2022-08-01T07:33:09;6.18;;;1.70;;
30874;SDS011;17581;43.222;27.924;2022-08-01T07:35:34;19.00;;;1.70;;
30874;SDS011;17581;43.222;27.924;2022-08-01T07:38:03;7.75;;;1.95;;
30874;SDS011;17581;43.222;27.924;2022-08-01T07:40:29;10.85;;;1.85;;
30874;SDS011;17581;43.222;27.924;2022-08-01T07:42:54;10.70;;;2.30;;
30874;SDS011;17581;43.222;27.924;2022-08-01T07:45:20;6.68;;;1.75;;
30874;SDS011;17581;43.222;27.924;2022-08-01T07:47:46;7.38;;;2.17;;
30874;SDS011;17581;43.222;27.924;2022-08-01T07:50:11;12.57;;;1.63;;
30874;SDS011;17581;43.222;27.924;2022-08-01T07:52:37;10.40;;;1.67;;
30874;SDS011;17581;43.222;27.924;2022-08-01T07:55:03;11.93;;;1.63;;
30874;SDS011;17581;43.222;27.924;2022-08-01T07:57:29;7.00;;;1.63;;
30874;SDS011;17581;43.222;27.924;2022-08-01T07:59:55;5.30;;;1.70;;
30874;SDS011;17581;43.222;27.924;2022-08-01T08:02:20;12.23;;;1.75;;
30874;SDS011;17581;43.222;27.924;2022-08-01T08:04:46;9.68;;;1.58;;
30874;SDS011;17581;43.222;27.924;2022-08-01T08:07:11;13.85;;;2.42;;
30874;SDS011;17581;43.222;27.924;2022-08-01T08:09:37;8.95;;;2.60;;
30874;SDS011;17581;43.222;27.924;2022-08-01T08:12:02;10.80;;;1.38;;
30874;SDS011;17581;43.222;27.924;2022-08-01T08:14:28;10.73;;;1.95;;
30874;SDS011;17581;43.222;27.924;2022-08-01T08:16:54;5.57;;;1.13;;
30874;SDS011;17581;43.222;27.924;2022-08-01T08:19:19;2.08;;;1.23;;
30874;SDS011;17581;43.222;27.924;2022-08-01T08:21:45;4.90;;;1.48;;
30874;SDS011;17581;43.222;27.924;2022-08-01T08:24:10;6.13;;;1.73;;
30874;SDS011;17581;43.222;27.924;2022-08-01T08:26:46;2.95;;;1.50;;
30874;SDS011;17581;43.222;27.924;2022-08-01T08:29:12;5.53;;;1.63;;
30874;SDS011;17581;43.222;27.924;2022-08-01T08:31:38;15.05;;;1.58;;
30874;SDS011;17581;43.222;27.924;2022-08-01T08:34:03;5.68;;;1.88;;
30874;SDS011;17581;43.222;27.924;2022-08-01T08:36:28;7.40;;;1.55;;
30874;SDS011;17581;43.222;27.924;2022-08-01T08:38:54;1.98;;;1.33;;
30874;SDS011;17581;43.222;27.924;2022-08-01T08:41:19;4.57;;;1.42;;
30874;SDS011;17581;43.222;27.924;2022-08-01T08:43:46;8.68;;;2.70;;
30874;SDS011;17581;43.222;27.924;2022-08-01T08:46:12;2.97;;;1.33;;
30874;SDS011;17581;43.222;27.924;2022-08-01T08:48:39;6.20;;;1.50;;
30874;SDS011;17581;43.222;27.924;2022-08-01T08:51:05;19.98;;;3.83;;
30874;SDS011;17581;43.222;27.924;2022-08-01T08:53:34;15.25;;;1.75;;
30874;SDS011;17581;43.222;27.924;2022-08-01T08:56:01;8.32;;;2.38;;
30874;SDS011;17581;43.222;27.924;2022-08-01T08:58:28;8.85;;;1.33;;
30874;SDS011;17581;43.222;27.924;2022-08-01T09:00:59;9.38;;;2.78;;
30874;SDS011;17581;43.222;27.924;2022-08-01T09:03:25;6.53;;;1.38;;
30874;SDS011;17581;43.222;27.924;2022-08-01T09:05:50;3.20;;;1.35;;
30874;SDS011;17581;43.222;27.924;2022-08-01T09:08:16;9.35;;;1.40;;
30874;SDS011;17581;43.222;27.924;2022-08-01T09:10:41;5.75;;;1.20;;
30874;SDS011;17581;43.222;27.924;2022-08-01T09:13:11;12.48;;;1.63;;
30874;SDS011;17581;43.222;27.924;2022-08-01T09:15:39;15.98;;;1.00;;
30874;SDS011;17581;43.222;27.924;2022-08-01T09:21:14;6.97;;;1.38;;
30874;SDS011;17581;43.222;27.924;2022-08-01T09:23:43;3.47;;;1.50;;
30874;SDS011;17581;43.222;27.924;2022-08-01T09:26:15;2.55;;;1.10;;
30874;SDS011;17581;43.222;27.924;2022-08-01T09:28:42;1.75;;;0.98;;
30874;SDS011;17581;43.222;27.924;2022-08-01T09:31:11;1.17;;;0.85;;
30874;SDS011;17581;43.222;27.924;2022-08-01T09:33:48;6.65;;;1.10;;
30874;SDS011;17581;43.222;27.924;2022-08-01T09:36:16;3.15;;;1.30;;
30874;SDS011;17581;43.222;27.924;2022-08-01T09:38:42;2.67;;;1.05;;
30874;SDS011;17581;43.222;27.924;2022-08-01T09:41:08;15.13;;;2.25;;
30874;SDS011;17581;43.222;27.924;2022-08-01T09:43:34;4.50;;;1.20;;
30874;SDS011;17581;43.222;27.924;2022-08-01T09:46:04;3.67;;;1.10;;
30874;SDS011;17581;43.222;27.924;2022-08-01T09:48:34;4.53;;;0.90;;
30874;SDS011;17581;43.222;27.924;2022-08-01T09:51:02;3.00;;;1.30;;
30874;SDS011;17581;43.222;27.924;2022-08-01T09:53:27;8.85;;;1.70;;
30874;SDS011;17581;43.222;27.924;2022-08-01T09:56:09;2.55;;;0.90;;
30874;SDS011;17581;43.222;27.924;2022-08-01T10:01:46;4.22;;;1.10;;
30874;SDS011;17581;43.222;27.924;2022-08-01T10:04:14;3.22;;;1.15;;
30874;SDS011;17581;43.222;27.924;2022-08-01T10:06:40;14.88;;;1.83;;
30874;SDS011;17581;43.222;27.924;2022-08-01T10:09:09;1.95;;;0.80;;
30874;SDS011;17581;43.222;27.924;2022-08-01T10:11:36;2.30;;;0.80;;
30874;SDS011;17581;43.222;27.924;2022-08-01T10:14:04;8.35;;;1.60;;
30874;SDS011;17581;43.222;27.924;2022-08-01T10:16:30;4.25;;;1.35;;
30874;SDS011;17581;43.222;27.924;2022-08-01T10:18:58;1.08;;;0.80;;
30874;SDS011;17581;43.222;27.924;2022-08-01T10:21:24;4.03;;;1.70;;
30874;SDS011;17581;43.222;27.924;2022-08-01T10:23:52;5.03;;;1.70;;
30874;SDS011;17581;43.222;27.924;2022-08-01T10:26:20;2.55;;;1.15;;
30874;SDS011;17581;43.222;27.924;2022-08-01T10:28:47;5.63;;;1.20;;
30874;SDS011;17581;43.222;27.924;2022-08-01T10:31:13;5.55;;;1.02;;
30874;SDS011;17581;43.222;27.924;2022-08-01T10:33:39;3.13;;;1.10;;
30874;SDS011;17581;43.222;27.924;2022-08-01T10:36:06;3.63;;;1.60;;
30874;SDS011;17581;43.222;27.924;2022-08-01T10:38:33;4.68;;;1.50;;
30874;SDS011;17581;43.222;27.924;2022-08-01T10:41:00;4.45;;;2.47;;
30874;SDS011;17581;43.222;27.924;2022-08-01T10:43:28;4.18;;;0.80;;
30874;SDS011;17581;43.222;27.924;2022-08-01T10:45:53;5.18;;;1.20;;
30874;SDS011;17581;43.222;27.924;2022-08-01T10:48:31;6.60;;;1.33;;
30874;SDS011;17581;43.222;27.924;2022-08-01T10:51:01;2.72;;;1.17;;
30874;SDS011;17581;43.222;27.924;2022-08-01T10:53:28;7.18;;;1.10;;
30874;SDS011;17581;43.222;27.924;2022-08-01T10:58:26;2.57;;;1.90;;
30874;SDS011;17581;43.222;27.924;2022-08-01T11:01:13;5.20;;;1.23;;
30874;SDS011;17581;43.222;27.924;2022-08-01T11:03:44;3.08;;;1.02;;
30874;SDS011;17581;43.222;27.924;2022-08-01T11:06:22;32.08;;;21.75;;
30874;SDS011;17581;43.222;27.924;2022-08-01T11:08:58;1.85;;;1.10;;
30874;SDS011;17581;43.222;27.924;2022-08-01T11:11:26;109.65;;;12.63;;
30874;SDS011;17581;43.222;27.924;2022-08-01T11:16:30;4.07;;;1.45;;
30874;SDS011;17581;43.222;27.924;2022-08-01T11:18:56;5.75;;;1.17;;
30874;SDS011;17581;43.222;27.924;2022-08-01T11:21:54;16.88;;;1.90;;
30874;SDS011;17581;43.222;27.924;2022-08-01T11:25:02;10.23;;;0.90;;
30874;SDS011;17581;43.222;27.924;2022-08-01T11:29:40;3.75;;;1.13;;
30874;SDS011;17581;43.222;27.924;2022-08-01T11:32:23;2.15;;;1.02;;
30874;SDS011;17581;43.222;27.924;2022-08-01T11:34:54;3.70;;;1.30;;
30874;SDS011;17581;43.222;27.924;2022-08-01T11:37:24;1.42;;;0.73;;
30874;SDS011;17581;43.222;27.924;2022-08-01T11:42:44;4.35;;;1.50;;
30874;SDS011;17581;43.222;27.924;2022-08-01T11:45:09;3.22;;;1.20;;
30874;SDS011;17581;43.222;27.924;2022-08-01T11:53:00;8.52;;;1.20;;
30874;SDS011;17581;43.222;27.924;2022-08-01T11:55:27;8.82;;;1.00;;
30874;SDS011;17581;43.222;27.924;2022-08-01T11:58:04;3.75;;;1.25;;
30874;SDS011;17581;43.222;27.924;2022-08-01T12:00:31;1.98;;;1.10;;
30874;SDS011;17581;43.222;27.924;2022-08-01T12:03:02;2.38;;;1.23;;
30874;SDS011;17581;43.222;27.924;2022-08-01T12:05:29;3.70;;;1.38;;
30874;SDS011;17581;43.222;27.924;2022-08-01T12:07:56;6.22;;;1.50;;
30874;SDS011;17581;43.222;27.924;2022-08-01T12:10:23;6.13;;;1.48;;
30874;SDS011;17581;43.222;27.924;2022-08-01T12:15:20;12.45;;;1.58;;
30874;SDS011;17581;43.222;27.924;2022-08-01T12:17:58;2.50;;;1.05;;
30874;SDS011;17581;43.222;27.924;2022-08-01T12:20:27;5.20;;;1.75;;
30874;SDS011;17581;43.222;27.924;2022-08-01T12:22:59;2.47;;;1.30;;
30874;SDS011;17581;43.222;27.924;2022-08-01T12:25:26;3.75;;;1.40;;
30874;SDS011;17581;43.222;27.924;2022-08-01T12:27:52;2.60;;;1.00;;
30874;SDS011;17581;43.222;27.924;2022-08-01T12:30:18;4.20;;;1.25;;
30874;SDS011;17581;43.222;27.924;2022-08-01T12:32:48;5.57;;;1.63;;
30874;SDS011;17581;43.222;27.924;2022-08-01T12:35:15;1.58;;;0.73;;
30874;SDS011;17581;43.222;27.924;2022-08-01T12:37:46;3.65;;;1.08;;
30874;SDS011;17581;43.222;27.924;2022-08-01T12:42:50;6.70;;;1.00;;
30874;SDS011;17581;43.222;27.924;2022-08-01T12:45:18;5.88;;;1.40;;
30874;SDS011;17581;43.222;27.924;2022-08-01T12:47:45;6.18;;;1.85;;
30874;SDS011;17581;43.222;27.924;2022-08-01T12:50:16;1.88;;;1.10;;
30874;SDS011;17581;43.222;27.924;2022-08-01T12:52:53;8.00;;;1.30;;
30874;SDS011;17581;43.222;27.924;2022-08-01T12:55:24;8.93;;;1.38;;
30874;SDS011;17581;43.222;27.924;2022-08-01T12:58:03;4.03;;;2.17;;
30874;SDS011;17581;43.222;27.924;2022-08-01T13:00:30;5.30;;;1.40;;
30874;SDS011;17581;43.222;27.924;2022-08-01T13:03:08;12.30;;;1.35;;
30874;SDS011;17581;43.222;27.924;2022-08-01T13:08:09;0.75;;;0.75;;
30874;SDS011;17581;43.222;27.924;2022-08-01T13:10:40;2.38;;;1.30;;
30874;SDS011;17581;43.222;27.924;2022-08-01T13:13:06;7.68;;;1.40;;
30874;SDS011;17581;43.222;27.924;2022-08-01T13:15:33;2.78;;;1.30;;
30874;SDS011;17581;43.222;27.924;2022-08-01T13:18:01;2.42;;;1.10;;
30874;SDS011;17581;43.222;27.924;2022-08-01T13:20:46;3.85;;;1.48;;
30874;SDS011;17581;43.222;27.924;2022-08-01T13:23:18;4.05;;;1.25;;
30874;SDS011;17581;43.222;27.924;2022-08-01T13:25:51;3.85;;;1.75;;
30874;SDS011;17581;43.222;27.924;2022-08-01T13:28:22;3.05;;;1.60;;
30874;SDS011;17581;43.222;27.924;2022-08-01T13:31:00;2.20;;;1.48;;
30874;SDS011;17581;43.222;27.924;2022-08-01T13:33:28;2.80;;;1.38;;
30874;SDS011;17581;43.222;27.924;2022-08-01T13:36:06;9.25;;;2.35;;
30874;SDS011;17581;43.222;27.924;2022-08-01T13:38:31;2.05;;;1.38;;
30874;SDS011;17581;43.222;27.924;2022-08-01T13:41:15;2.70;;;1.48;;
30874;SDS011;17581;43.222;27.924;2022-08-01T13:43:41;2.03;;;1.20;;
30874;SDS011;17581;43.222;27.924;2022-08-01T13:46:06;6.13;;;1.90;;
30874;SDS011;17581;43.222;27.924;2022-08-01T13:48:32;2.30;;;1.40;;
30874;SDS011;17581;43.222;27.924;2022-08-01T13:50:58;9.98;;;1.60;;
30874;SDS011;17581;43.222;27.924;2022-08-01T13:53:23;9.75;;;1.83;;
30874;SDS011;17581;43.222;27.924;2022-08-01T13:55:49;9.60;;;2.33;;
30874;SDS011;17581;43.222;27.924;2022-08-01T13:58:15;10.60;;;1.90;;
30874;SDS011;17581;43.222;27.924;2022-08-01T14:00:40;17.95;;;2.47;;
30874;SDS011;17581;43.222;27.924;2022-08-01T14:03:06;2.38;;;1.40;;
30874;SDS011;17581;43.222;27.924;2022-08-01T14:05:31;9.52;;;2.00;;
30874;SDS011;17581;43.222;27.924;2022-08-01T14:07:57;7.20;;;2.28;;
30874;SDS011;17581;43.222;27.924;2022-08-01T14:10:23;6.50;;;2.00;;
30874;SDS011;17581;43.222;27.924;2022-08-01T14:12:49;6.07;;;1.80;;
30874;SDS011;17581;43.222;27.924;2022-08-01T14:15:15;8.15;;;2.00;;
30874;SDS011;17581;43.222;27.924;2022-08-01T14:17:40;15.65;;;2.83;;
30874;SDS011;17581;43.222;27.924;2022-08-01T14:20:06;9.88;;;1.60;;
30874;SDS011;17581;43.222;27.924;2022-08-01T14:22:32;7.53;;;2.28;;
30874;SDS011;17581;43.222;27.924;2022-08-01T14:24:58;7.05;;;1.65;;
30874;SDS011;17581;43.222;27.924;2022-08-01T14:27:24;12.55;;;2.20;;
30874;SDS011;17581;43.222;27.924;2022-08-01T14:29:50;5.00;;;1.88;;
30874;SDS011;17581;43.222;27.924;2022-08-01T14:32:15;5.07;;;1.95;;
30874;SDS011;17581;43.222;27.924;2022-08-01T14:34:40;12.85;;;1.92;;
30874;SDS011;17581;43.222;27.924;2022-08-01T14:37:06;16.75;;;3.03;;
30874;SDS011;17581;43.222;27.924;2022-08-01T14:39:31;9.45;;;2.30;;
30874;SDS011;17581;43.222;27.924;2022-08-01T14:41:57;13.90;;;2.72;;
30874;SDS011;17581;43.222;27.924;2022-08-01T14:44:22;6.50;;;2.25;;
30874;SDS011;17581;43.222;27.924;2022-08-01T14:46:48;7.53;;;2.67;;
30874;SDS011;17581;43.222;27.924;2022-08-01T14:49:14;6.72;;;3.05;;
30874;SDS011;17581;43.222;27.924;2022-08-01T14:51:40;4.95;;;2.65;;
30874;SDS011;17581;43.222;27.924;2022-08-01T14:54:06;6.80;;;3.50;;
30874;SDS011;17581;43.222;27.924;2022-08-01T14:56:31;5.57;;;3.00;;
30874;SDS011;17581;43.222;27.924;2022-08-01T14:58:56;11.15;;;6.05;;
30874;SDS011;17581;43.222;27.924;2022-08-01T15:01:22;7.40;;;3.75;;
30874;SDS011;17581;43.222;27.924;2022-08-01T15:03:47;6.70;;;3.63;;
30874;SDS011;17581;43.222;27.924;2022-08-01T15:06:15;10.38;;;3.72;;
30874;SDS011;17581;43.222;27.924;2022-08-01T15:08:40;54.88;;;34.88;;
30874;SDS011;17581;43.222;27.924;2022-08-01T15:11:06;13.23;;;3.60;;
30874;SDS011;17581;43.222;27.924;2022-08-01T15:13:31;7.05;;;3.88;;
30874;SDS011;17581;43.222;27.924;2022-08-01T15:15:57;9.00;;;4.05;;
30874;SDS011;17581;43.222;27.924;2022-08-01T15:18:23;9.95;;;4.18;;
30874;SDS011;17581;43.222;27.924;2022-08-01T15:20:48;8.85;;;4.18;;